createdAt,value
2023-05-12T00:03:58.473Z,2.75
2023-05-12T00:09:00.267Z,2.88
2023-05-12T00:14:02.158Z,3.17
2023-05-12T00:19:03.878Z,2.85
2023-05-12T00:24:06.170Z,2.80
2023-05-12T00:29:07.792Z,3.00
2023-05-12T00:34:09.362Z,2.70
2023-05-12T00:39:11.679Z,3.13
2023-05-12T00:44:13.439Z,2.92
2023-05-12T00:49:15.260Z,3.45
2023-05-12T00:54:17.189Z,2.83
2023-05-12T00:59:18.857Z,2.80
2023-05-12T01:04:20.475Z,3.25
2023-05-12T01:09:22.597Z,3.17
2023-05-12T01:14:24.192Z,3.40
2023-05-12T01:19:49.387Z,3.00
2023-05-12T01:24:51.109Z,2.90
2023-05-12T01:29:53.021Z,3.63
2023-05-12T01:34:54.621Z,3.40
2023-05-12T01:39:57.047Z,3.40
2023-05-12T01:44:58.746Z,3.20
2023-05-12T01:50:01.386Z,2.83
2023-05-12T01:55:03.042Z,3.13
2023-05-12T02:00:12.700Z,3.45
2023-05-12T02:05:17.452Z,2.92
2023-05-12T02:10:22.277Z,3.45
2023-05-12T02:15:24.542Z,3.20
2023-05-12T02:20:27.436Z,3.47
2023-05-12T02:25:29.078Z,3.70
2023-05-12T02:30:30.723Z,3.63
2023-05-12T02:35:32.701Z,3.95
2023-05-12T02:40:34.409Z,4.35
2023-05-12T02:45:36.239Z,4.22
2023-05-12T02:50:37.866Z,4.47
2023-05-12T02:55:39.622Z,4.32
2023-05-12T03:00:41.268Z,4.30
2023-05-12T03:05:43.168Z,4.30
2023-05-12T03:10:45.260Z,4.60
2023-05-12T03:15:46.800Z,4.40
2023-05-12T03:20:48.413Z,4.20
2023-05-12T03:25:50.063Z,4.75
2023-05-12T03:30:51.716Z,4.95
2023-05-12T03:35:53.354Z,4.60
2023-05-12T03:41:07.470Z,4.30
2023-05-12T03:46:10.273Z,4.82
2023-05-12T03:51:11.990Z,4.10
2023-05-12T03:56:15.532Z,3.72
2023-05-12T04:01:17.273Z,4.00
2023-05-12T04:06:18.906Z,3.83
2023-05-12T04:11:20.484Z,4.20
2023-05-12T04:16:22.642Z,3.70
2023-05-12T04:21:25.523Z,3.72
2023-05-12T04:26:27.267Z,3.72
2023-05-12T04:31:28.955Z,4.10
2023-05-12T04:36:32.076Z,4.10
2023-05-12T04:41:34.090Z,4.03
2023-05-12T04:46:36.011Z,3.80
2023-05-12T04:51:42.375Z,4.00
2023-05-12T04:56:44.199Z,3.72
2023-05-12T05:01:46.738Z,4.22
2023-05-12T05:06:49.334Z,4.63
2023-05-12T05:11:51.150Z,4.50
2023-05-12T05:16:53.982Z,4.50
2023-05-12T05:21:55.849Z,4.30
2023-05-12T05:26:57.508Z,4.38
2023-05-12T05:31:59.270Z,4.72
2023-05-12T05:37:01.032Z,4.38
2023-05-12T05:42:02.635Z,4.90
2023-05-12T05:47:05.526Z,4.55
2023-05-12T05:52:07.199Z,5.18
2023-05-12T05:57:09.241Z,4.88
2023-05-12T06:02:11.580Z,5.00
2023-05-12T06:07:13.335Z,4.65
2023-05-12T06:12:15.049Z,4.32
2023-05-12T06:17:17.131Z,4.85
2023-05-12T06:22:18.714Z,4.93
2023-05-12T06:27:20.437Z,4.85
2023-05-12T06:32:22.125Z,4.60
2023-05-12T06:37:23.723Z,4.13
2023-05-12T06:42:25.317Z,4.20
2023-05-12T06:47:27.070Z,4.60
2023-05-12T06:52:32.168Z,4.50
2023-05-12T06:57:33.723Z,4.40
2023-05-12T07:02:35.489Z,4.40
2023-05-12T07:07:37.157Z,4.25
2023-05-12T07:12:39.319Z,3.92
2023-05-12T07:17:41.306Z,3.80
2023-05-12T07:22:42.986Z,3.95
2023-05-12T07:27:44.875Z,3.72
2023-05-12T07:32:46.922Z,3.72
2023-05-12T07:37:48.492Z,4.10
2023-05-12T07:42:50.017Z,3.38
2023-05-12T07:47:51.810Z,3.90
2023-05-12T07:52:53.957Z,3.63
2023-05-12T07:57:55.563Z,3.67
2023-05-12T08:02:57.348Z,3.50
2023-05-12T08:07:59.036Z,3.63
2023-05-12T08:13:00.640Z,3.65
2023-05-12T08:18:02.231Z,3.38
2023-05-12T08:23:03.764Z,3.60
2023-05-12T08:28:05.386Z,3.42
2023-05-12T08:33:07.221Z,3.13
2023-05-12T08:38:08.907Z,3.58
2023-05-12T08:43:23.318Z,3.38
2023-05-12T08:48:28.194Z,3.40
2023-05-12T08:53:29.948Z,3.30
2023-05-12T08:58:40.913Z,3.50
2023-05-12T09:03:44.274Z,3.40
2023-05-12T09:08:45.863Z,3.15
2023-05-12T09:14:09.882Z,3.33
2023-05-12T09:19:11.590Z,3.25
2023-05-12T09:24:13.322Z,3.55
2023-05-12T09:29:24.035Z,2.90
2023-05-12T09:34:36.988Z,3.40
2023-05-12T09:39:38.568Z,3.05
2023-05-12T09:44:41.243Z,2.70
2023-05-12T09:49:46.423Z,3.10
2023-05-12T09:54:48.428Z,3.00
2023-05-12T09:59:50.007Z,2.63
2023-05-12T10:04:58.517Z,3.28
2023-05-12T10:10:04.285Z,2.90
2023-05-12T10:15:07.071Z,2.90
2023-05-12T10:20:09.884Z,2.53
2023-05-12T10:25:12.216Z,2.60
2023-05-12T10:30:14.335Z,3.00
2023-05-12T10:35:16.506Z,2.47
2023-05-12T10:40:25.510Z,2.47
2023-05-12T10:45:27.844Z,3.05
2023-05-12T10:50:29.413Z,3.00
2023-05-12T10:55:36.582Z,3.10
2023-05-12T11:00:47.843Z,2.97
2023-05-12T11:06:07.228Z,2.60
2023-05-12T11:11:09.282Z,3.05
2023-05-12T11:16:12.664Z,3.20
2023-05-12T11:21:14.669Z,3.55
2023-05-12T11:26:19.283Z,2.92
2023-05-12T11:31:21.946Z,3.58
2023-05-12T11:36:23.760Z,3.75
2023-05-12T11:41:26.324Z,4.10
2023-05-12T11:46:29.019Z,4.28
2023-05-12T11:51:32.073Z,4.70
2023-05-12T11:56:33.892Z,4.47
2023-05-12T12:01:44.580Z,4.30
2023-05-12T12:06:46.402Z,4.30
2023-05-12T12:11:47.964Z,3.53
2023-05-12T12:16:49.544Z,3.65
2023-05-12T12:21:51.134Z,3.15
2023-05-12T12:26:52.689Z,4.10
2023-05-12T12:31:54.264Z,4.13
2023-05-12T12:36:55.891Z,4.45
2023-05-12T12:41:57.546Z,4.00
2023-05-12T12:46:59.693Z,3.97
2023-05-12T12:52:02.013Z,3.97
2023-05-12T12:57:04.590Z,3.90
2023-05-12T13:02:06.649Z,3.13
2023-05-12T13:07:08.740Z,3.15
2023-05-12T13:12:10.349Z,3.00
2023-05-12T13:17:12.106Z,3.35
2023-05-12T13:22:13.700Z,4.13
2023-05-12T13:27:15.239Z,3.50
2023-05-12T13:32:17.156Z,3.85
2023-05-12T13:37:18.798Z,3.63
2023-05-12T13:42:22.352Z,2.50
2023-05-12T13:47:24.273Z,3.58
2023-05-12T13:52:25.917Z,3.95
2023-05-12T13:57:27.493Z,3.50
2023-05-12T14:02:29.038Z,3.60
2023-05-12T14:07:30.957Z,3.65
2023-05-12T14:12:32.558Z,3.97
2023-05-12T14:17:34.130Z,3.72
2023-05-12T14:22:35.854Z,3.85
2023-05-12T14:27:37.630Z,2.92
2023-05-12T14:32:39.215Z,2.50
2023-05-12T14:37:40.885Z,2.60
2023-05-12T14:42:42.554Z,2.80
2023-05-12T14:47:44.470Z,3.20
2023-05-12T14:52:46.382Z,2.65
2023-05-12T14:57:49.437Z,2.80
2023-05-12T15:02:51.100Z,3.10
2023-05-12T15:07:52.760Z,2.83
2023-05-12T15:12:54.302Z,2.75
2023-05-12T15:17:55.842Z,3.13
2023-05-12T15:22:57.439Z,3.00
2023-05-12T15:27:59.030Z,3.00
2023-05-12T15:33:03.749Z,3.30
2023-05-12T15:38:06.572Z,3.28
2023-05-12T15:43:08.462Z,3.20
2023-05-12T15:48:10.697Z,3.38
2023-05-12T15:53:12.625Z,2.92
2023-05-12T15:58:15.298Z,2.63
2023-05-12T16:03:16.998Z,2.80
2023-05-12T16:08:18.879Z,2.80
2023-05-12T16:13:20.456Z,2.95
2023-05-12T16:18:22.048Z,2.78
2023-05-12T16:23:26.776Z,2.83
2023-05-12T16:28:28.402Z,3.28
2023-05-12T16:33:29.952Z,3.10
2023-05-12T16:38:32.366Z,2.75
2023-05-12T16:43:34.004Z,2.70
2023-05-12T16:48:36.234Z,3.10
2023-05-12T16:53:37.879Z,2.92
2023-05-12T16:58:40.623Z,3.28
2023-05-12T17:03:42.705Z,2.92
2023-05-12T17:08:44.399Z,3.10
2023-05-12T17:13:45.995Z,2.78
2023-05-12T17:23:52.856Z,2.72
2023-05-12T17:28:54.464Z,2.83
2023-05-12T17:33:56.100Z,3.20
2023-05-12T17:38:57.770Z,2.83
2023-05-12T17:43:59.401Z,2.80
2023-05-12T17:49:01.152Z,2.70
2023-05-12T17:54:03.978Z,3.03
2023-05-12T17:59:05.617Z,2.70
2023-05-12T18:04:07.195Z,3.28
2023-05-12T18:09:08.773Z,2.72
2023-05-12T18:14:10.798Z,3.30
2023-05-12T18:19:12.497Z,3.55
2023-05-12T18:24:14.212Z,3.13
2023-05-12T18:29:15.837Z,3.70
2023-05-12T18:34:17.543Z,3.47
2023-05-12T18:39:19.304Z,3.10
2023-05-12T18:44:20.895Z,3.00
2023-05-12T18:49:22.674Z,3.05
2023-05-12T18:54:24.278Z,3.03
2023-05-12T18:59:26.090Z,3.65
2023-05-12T19:04:27.703Z,3.47
2023-05-12T19:09:29.305Z,3.83
2023-05-12T19:14:31.044Z,6.68
2023-05-12T19:19:33.543Z,6.50
2023-05-12T19:24:35.359Z,6.28
2023-05-12T19:29:37.689Z,6.18
2023-05-12T19:34:39.327Z,6.75
2023-05-12T19:39:40.899Z,7.05
2023-05-12T19:44:42.518Z,4.43
2023-05-12T19:49:44.260Z,4.20
2023-05-12T19:54:46.223Z,4.60
2023-05-12T19:59:49.547Z,3.83
2023-05-12T20:04:51.140Z,4.45
2023-05-12T20:09:52.999Z,4.32
2023-05-12T20:14:54.617Z,4.70
2023-05-12T20:19:57.015Z,5.05
2023-05-12T20:25:04.361Z,5.00
2023-05-12T20:30:07.115Z,5.10
2023-05-12T20:35:09.174Z,5.00
2023-05-12T20:40:11.048Z,5.32
2023-05-12T20:45:13.488Z,5.40
2023-05-12T20:50:15.195Z,5.00
2023-05-12T20:55:16.781Z,5.53
2023-05-12T21:00:18.621Z,5.13
2023-05-12T21:05:21.147Z,5.70
2023-05-12T21:10:23.665Z,5.20
2023-05-12T21:15:26.763Z,5.22
2023-05-12T21:20:28.367Z,5.68
2023-05-12T21:25:30.007Z,5.10
2023-05-12T21:30:31.630Z,5.88
2023-05-12T21:35:33.234Z,5.65
2023-05-12T21:40:34.935Z,5.80
2023-05-12T21:45:36.547Z,6.28
2023-05-12T21:50:38.319Z,6.55
2023-05-12T21:55:40.731Z,6.20
2023-05-12T22:00:42.304Z,6.57
2023-05-12T22:05:44.837Z,6.65
2023-05-12T22:10:46.881Z,6.13
2023-05-12T22:15:48.477Z,6.35
2023-05-12T22:20:50.099Z,6.68
2023-05-12T22:25:52.066Z,6.70
2023-05-12T22:30:53.685Z,7.07
2023-05-12T22:35:58.510Z,7.10
2023-05-12T22:41:00.164Z,6.95
2023-05-12T22:46:01.722Z,6.97
2023-05-12T22:51:03.376Z,6.55
2023-05-12T22:56:05.279Z,6.75
2023-05-12T23:01:06.989Z,7.30
2023-05-12T23:06:08.616Z,6.57
2023-05-12T23:11:11.790Z,7.13
2023-05-12T23:16:13.433Z,5.70
2023-05-12T23:21:15.242Z,6.72
2023-05-12T23:26:16.820Z,6.45
2023-05-12T23:31:18.485Z,6.40
2023-05-12T23:36:20.342Z,6.60
2023-05-12T23:41:22.174Z,6.80
2023-05-12T23:46:23.829Z,6.55
2023-05-12T23:51:25.885Z,6.40
2023-05-12T23:56:27.515Z,6.30
